sensor_id;sensor_type;location;lat;lon;timestamp;temperature;humidity
46652;DHT22;32377;52.182;5.398;2023-04-03T00:00:10;3.90;99.90
46652;DHT22;32377;52.182;5.398;2023-04-03T00:02:36;3.90;99.90
46652;DHT22;32377;52.182;5.398;2023-04-03T00:05:02;3.80;99.90
46652;DHT22;32377;52.182;5.398;2023-04-03T00:07:27;3.80;99.90
46652;DHT22;32377;52.182;5.398;2023-04-03T00:09:53;3.80;99.90
46652;DHT22;32377;52.182;5.398;2023-04-03T00:12:18;3.80;99.90
46652;DHT22;32377;52.182;5.398;2023-04-03T00:14:44;3.80;99.90
46652;DHT22;32377;52.182;5.398;2023-04-03T00:17:10;3.70;99.90
46652;DHT22;32377;52.182;5.398;2023-04-03T00:19:35;3.70;99.90
46652;DHT22;32377;52.182;5.398;2023-04-03T00:22:01;3.70;99.90
46652;DHT22;32377;52.182;5.398;2023-04-03T00:24:27;3.70;99.90
46652;DHT22;32377;52.182;5.398;2023-04-03T00:26:52;3.60;99.90
46652;DHT22;32377;52.182;5.398;2023-04-03T00:29:18;3.60;99.90
46652;DHT22;32377;52.182;5.398;2023-04-03T00:31:44;3.50;99.90
46652;DHT22;32377;52.182;5.398;2023-04-03T00:34:09;3.50;99.90
46652;DHT22;32377;52.182;5.398;2023-04-03T00:36:35;3.50;99.90
46652;DHT22;32377;52.182;5.398;2023-04-03T00:39:01;3.50;99.90
46652;DHT22;32377;52.182;5.398;2023-04-03T00:41:26;3.50;99.90
46652;DHT22;32377;52.182;5.398;2023-04-03T00:43:52;3.40;99.90
46652;DHT22;32377;52.182;5.398;2023-04-03T00:46:17;3.40;99.90
46652;DHT22;32377;52.182;5.398;2023-04-03T00:48:47;3.40;99.90
46652;DHT22;32377;52.182;5.398;2023-04-03T00:51:17;3.40;99.90
46652;DHT22;32377;52.182;5.398;2023-04-03T00:53:49;3.40;99.90
46652;DHT22;32377;52.182;5.398;2023-04-03T00:56:18;3.30;99.90
46652;DHT22;32377;52.182;5.398;2023-04-03T00:58:53;3.40;99.90
46652;DHT22;32377;52.182;5.398;2023-04-03T01:01:21;3.30;99.90
46652;DHT22;32377;52.182;5.398;2023-04-03T01:03:47;3.30;99.90
46652;DHT22;32377;52.182;5.398;2023-04-03T01:06:16;3.20;99.90
46652;DHT22;32377;52.182;5.398;2023-04-03T01:08:42;3.20;99.90
46652;DHT22;32377;52.182;5.398;2023-04-03T01:11:08;3.20;99.90
46652;DHT22;32377;52.182;5.398;2023-04-03T01:13:34;3.20;99.90
46652;DHT22;32377;52.182;5.398;2023-04-03T01:16:04;3.20;99.90
46652;DHT22;32377;52.182;5.398;2023-04-03T01:18:30;3.20;99.90
46652;DHT22;32377;52.182;5.398;2023-04-03T01:26:43;3.10;99.90
46652;DHT22;32377;52.182;5.398;2023-04-03T01:29:09;3.10;99.90
46652;DHT22;32377;52.182;5.398;2023-04-03T01:34:00;3.00;99.90
46652;DHT22;32377;52.182;5.398;2023-04-03T01:36:28;3.10;99.90
46652;DHT22;32377;52.182;5.398;2023-04-03T01:38:55;3.00;99.90
46652;DHT22;32377;52.182;5.398;2023-04-03T01:41:21;3.00;99.90
46652;DHT22;32377;52.182;5.398;2023-04-03T01:43:48;3.00;99.90
46652;DHT22;32377;52.182;5.398;2023-04-03T01:46:14;3.00;99.90
46652;DHT22;32377;52.182;5.398;2023-04-03T01:48:40;3.00;99.90
46652;DHT22;32377;52.182;5.398;2023-04-03T01:51:06;3.00;99.90
46652;DHT22;32377;52.182;5.398;2023-04-03T01:53:32;3.00;99.90
46652;DHT22;32377;52.182;5.398;2023-04-03T01:55:57;2.90;99.90
46652;DHT22;32377;52.182;5.398;2023-04-03T01:58:23;2.90;99.90
46652;DHT22;32377;52.182;5.398;2023-04-03T02:00:49;2.90;99.90
46652;DHT22;32377;52.182;5.398;2023-04-03T02:03:14;2.90;99.90
46652;DHT22;32377;52.182;5.398;2023-04-03T02:05:40;2.90;99.90
46652;DHT22;32377;52.182;5.398;2023-04-03T02:08:06;2.80;99.90
46652;DHT22;32377;52.182;5.398;2023-04-03T02:10:32;2.80;99.90
46652;DHT22;32377;52.182;5.398;2023-04-03T02:12:58;2.80;99.90
46652;DHT22;32377;52.182;5.398;2023-04-03T02:15:23;2.80;99.90
46652;DHT22;32377;52.182;5.398;2023-04-03T02:17:49;2.80;99.90
46652;DHT22;32377;52.182;5.398;2023-04-03T02:20:14;2.80;99.90
46652;DHT22;32377;52.182;5.398;2023-04-03T02:22:40;2.70;99.90
46652;DHT22;32377;52.182;5.398;2023-04-03T02:25:06;2.70;99.90
46652;DHT22;32377;52.182;5.398;2023-04-03T02:27:32;2.70;99.90
46652;DHT22;32377;52.182;5.398;2023-04-03T02:29:57;2.70;99.90
46652;DHT22;32377;52.182;5.398;2023-04-03T02:32:23;2.60;99.90
46652;DHT22;32377;52.182;5.398;2023-04-03T02:34:49;2.60;99.90
46652;DHT22;32377;52.182;5.398;2023-04-03T02:37:15;2.60;99.90
46652;DHT22;32377;52.182;5.398;2023-04-03T02:39:40;2.60;99.90
46652;DHT22;32377;52.182;5.398;2023-04-03T02:42:06;2.60;99.90
46652;DHT22;32377;52.182;5.398;2023-04-03T02:44:32;2.60;99.90
46652;DHT22;32377;52.182;5.398;2023-04-03T02:46:58;2.60;99.90
46652;DHT22;32377;52.182;5.398;2023-04-03T02:49:23;2.50;99.90
46652;DHT22;32377;52.182;5.398;2023-04-03T02:51:49;2.50;99.90
46652;DHT22;32377;52.182;5.398;2023-04-03T02:54:16;2.50;99.90
46652;DHT22;32377;52.182;5.398;2023-04-03T02:56:42;2.40;99.90
46652;DHT22;32377;52.182;5.398;2023-04-03T02:59:07;2.40;99.90
46652;DHT22;32377;52.182;5.398;2023-04-03T03:01:33;2.40;99.90
46652;DHT22;32377;52.182;5.398;2023-04-03T03:04:00;2.40;99.90
46652;DHT22;32377;52.182;5.398;2023-04-03T03:06:26;2.40;99.90
46652;DHT22;32377;52.182;5.398;2023-04-03T03:08:52;2.40;99.90
46652;DHT22;32377;52.182;5.398;2023-04-03T03:11:18;2.40;99.90
46652;DHT22;32377;52.182;5.398;2023-04-03T03:13:43;2.40;99.90
46652;DHT22;32377;52.182;5.398;2023-04-03T03:16:09;2.30;99.90
46652;DHT22;32377;52.182;5.398;2023-04-03T03:18:35;2.30;99.90
46652;DHT22;32377;52.182;5.398;2023-04-03T03:21:02;2.30;99.90
46652;DHT22;32377;52.182;5.398;2023-04-03T03:23:30;2.30;99.90
46652;DHT22;32377;52.182;5.398;2023-04-03T03:25:59;2.20;99.90
46652;DHT22;32377;52.182;5.398;2023-04-03T03:28:25;2.30;99.90
46652;DHT22;32377;52.182;5.398;2023-04-03T03:30:51;2.20;99.90
46652;DHT22;32377;52.182;5.398;2023-04-03T03:33:17;2.20;99.90
46652;DHT22;32377;52.182;5.398;2023-04-03T03:35:43;2.20;99.90
46652;DHT22;32377;52.182;5.398;2023-04-03T03:38:09;2.20;99.90
46652;DHT22;32377;52.182;5.398;2023-04-03T03:40:35;2.10;99.90
46652;DHT22;32377;52.182;5.398;2023-04-03T03:43:01;2.10;99.90
46652;DHT22;32377;52.182;5.398;2023-04-03T03:45:26;2.10;99.90
46652;DHT22;32377;52.182;5.398;2023-04-03T03:47:52;2.10;99.90
46652;DHT22;32377;52.182;5.398;2023-04-03T03:50:18;2.10;99.90
46652;DHT22;32377;52.182;5.398;2023-04-03T03:52:43;2.00;99.90
46652;DHT22;32377;52.182;5.398;2023-04-03T03:55:10;2.00;99.90
46652;DHT22;32377;52.182;5.398;2023-04-03T03:59:16;2.00;99.90
46652;DHT22;32377;52.182;5.398;2023-04-03T04:01:41;2.00;99.90
46652;DHT22;32377;52.182;5.398;2023-04-03T04:04:07;1.90;99.90
46652;DHT22;32377;52.182;5.398;2023-04-03T04:06:33;1.90;99.90
46652;DHT22;32377;52.182;5.398;2023-04-03T04:08:58;1.90;99.90
46652;DHT22;32377;52.182;5.398;2023-04-03T04:11:24;1.90;99.90
46652;DHT22;32377;52.182;5.398;2023-04-03T04:13:50;1.90;99.90
46652;DHT22;32377;52.182;5.398;2023-04-03T04:16:15;1.90;99.90
46652;DHT22;32377;52.182;5.398;2023-04-03T04:18:41;1.90;99.90
46652;DHT22;32377;52.182;5.398;2023-04-03T04:21:06;1.90;99.90
46652;DHT22;32377;52.182;5.398;2023-04-03T04:23:32;1.90;99.90
46652;DHT22;32377;52.182;5.398;2023-04-03T04:25:58;1.90;99.90
46652;DHT22;32377;52.182;5.398;2023-04-03T04:28:23;1.90;99.90
46652;DHT22;32377;52.182;5.398;2023-04-03T04:30:49;1.90;99.90
46652;DHT22;32377;52.182;5.398;2023-04-03T04:33:14;1.90;99.90
46652;DHT22;32377;52.182;5.398;2023-04-03T04:35:42;1.90;99.90
46652;DHT22;32377;52.182;5.398;2023-04-03T04:38:08;1.80;99.90
46652;DHT22;32377;52.182;5.398;2023-04-03T04:40:34;1.80;99.90
46652;DHT22;32377;52.182;5.398;2023-04-03T04:43:00;1.80;99.90
46652;DHT22;32377;52.182;5.398;2023-04-03T04:45:25;1.80;99.90
46652;DHT22;32377;52.182;5.398;2023-04-03T04:47:51;1.80;99.90
46652;DHT22;32377;52.182;5.398;2023-04-03T04:50:18;1.70;99.90
46652;DHT22;32377;52.182;5.398;2023-04-03T04:52:43;1.80;99.90
46652;DHT22;32377;52.182;5.398;2023-04-03T04:55:09;1.80;99.90
46652;DHT22;32377;52.182;5.398;2023-04-03T04:57:35;1.70;99.90
46652;DHT22;32377;52.182;5.398;2023-04-03T05:00:00;1.70;99.90
46652;DHT22;32377;52.182;5.398;2023-04-03T05:02:26;1.70;99.90
46652;DHT22;32377;52.182;5.398;2023-04-03T05:04:51;1.70;99.90
46652;DHT22;32377;52.182;5.398;2023-04-03T05:07:17;1.70;99.90
46652;DHT22;32377;52.182;5.398;2023-04-03T05:09:43;1.70;99.90
46652;DHT22;32377;52.182;5.398;2023-04-03T05:12:09;1.70;99.90
46652;DHT22;32377;52.182;5.398;2023-04-03T05:14:35;1.70;99.90
46652;DHT22;32377;52.182;5.398;2023-04-03T05:17:00;1.70;99.90
46652;DHT22;32377;52.182;5.398;2023-04-03T05:19:26;1.70;99.90
46652;DHT22;32377;52.182;5.398;2023-04-03T05:21:51;1.70;99.90
46652;DHT22;32377;52.182;5.398;2023-04-03T05:24:17;1.70;99.90
46652;DHT22;32377;52.182;5.398;2023-04-03T05:26:43;1.70;99.90
46652;DHT22;32377;52.182;5.398;2023-04-03T05:29:09;1.70;99.90
46652;DHT22;32377;52.182;5.398;2023-04-03T05:31:35;1.70;99.90
46652;DHT22;32377;52.182;5.398;2023-04-03T05:34:02;1.70;99.90
46652;DHT22;32377;52.182;5.398;2023-04-03T05:36:28;1.70;99.90
46652;DHT22;32377;52.182;5.398;2023-04-03T05:38:53;1.70;99.90
46652;DHT22;32377;52.182;5.398;2023-04-03T05:41:21;1.70;99.90
46652;DHT22;32377;52.182;5.398;2023-04-03T05:43:47;1.70;99.90
46652;DHT22;32377;52.182;5.398;2023-04-03T05:46:15;1.70;99.90
46652;DHT22;32377;52.182;5.398;2023-04-03T05:48:41;1.70;99.90
46652;DHT22;32377;52.182;5.398;2023-04-03T05:51:07;1.70;99.90
46652;DHT22;32377;52.182;5.398;2023-04-03T05:53:37;1.70;99.90
46652;DHT22;32377;52.182;5.398;2023-04-03T05:56:03;1.80;99.90
46652;DHT22;32377;52.182;5.398;2023-04-03T05:58:29;1.80;99.90
46652;DHT22;32377;52.182;5.398;2023-04-03T06:00:54;2.00;99.90
46652;DHT22;32377;52.182;5.398;2023-04-03T06:03:20;2.00;99.90
46652;DHT22;32377;52.182;5.398;2023-04-03T06:05:46;2.10;99.90
46652;DHT22;32377;52.182;5.398;2023-04-03T06:08:12;2.10;99.90
46652;DHT22;32377;52.182;5.398;2023-04-03T06:10:38;2.10;99.90
46652;DHT22;32377;52.182;5.398;2023-04-03T06:13:04;2.20;99.90
46652;DHT22;32377;52.182;5.398;2023-04-03T06:15:30;2.20;99.90
46652;DHT22;32377;52.182;5.398;2023-04-03T06:17:55;2.30;99.90
46652;DHT22;32377;52.182;5.398;2023-04-03T06:20:21;2.30;99.90
46652;DHT22;32377;52.182;5.398;2023-04-03T06:22:48;2.40;99.90
46652;DHT22;32377;52.182;5.398;2023-04-03T06:25:14;2.40;99.90
46652;DHT22;32377;52.182;5.398;2023-04-03T06:27:40;2.50;99.90
46652;DHT22;32377;52.182;5.398;2023-04-03T06:30:06;2.50;99.90
46652;DHT22;32377;52.182;5.398;2023-04-03T06:32:32;2.60;99.90
46652;DHT22;32377;52.182;5.398;2023-04-03T06:34:58;2.70;99.90
46652;DHT22;32377;52.182;5.398;2023-04-03T06:37:24;2.70;99.90
46652;DHT22;32377;52.182;5.398;2023-04-03T06:39:54;2.80;99.90
46652;DHT22;32377;52.182;5.398;2023-04-03T06:42:20;2.90;99.90
46652;DHT22;32377;52.182;5.398;2023-04-03T06:44:46;2.80;99.90
46652;DHT22;32377;52.182;5.398;2023-04-03T06:47:16;3.00;99.90
46652;DHT22;32377;52.182;5.398;2023-04-03T06:49:42;3.00;99.90
46652;DHT22;32377;52.182;5.398;2023-04-03T06:52:08;3.10;99.90
46652;DHT22;32377;52.182;5.398;2023-04-03T06:54:34;3.20;99.90
46652;DHT22;32377;52.182;5.398;2023-04-03T06:57:01;3.30;99.90
46652;DHT22;32377;52.182;5.398;2023-04-03T06:59:27;3.30;99.90
46652;DHT22;32377;52.182;5.398;2023-04-03T07:01:53;3.40;99.90
46652;DHT22;32377;52.182;5.398;2023-04-03T07:04:18;3.50;99.90
46652;DHT22;32377;52.182;5.398;2023-04-03T07:06:46;3.40;99.90
46652;DHT22;32377;52.182;5.398;2023-04-03T07:09:13;3.40;99.90
46652;DHT22;32377;52.182;5.398;2023-04-03T07:11:39;3.50;99.90
46652;DHT22;32377;52.182;5.398;2023-04-03T07:14:05;3.50;99.90
46652;DHT22;32377;52.182;5.398;2023-04-03T07:16:33;3.50;99.90
46652;DHT22;32377;52.182;5.398;2023-04-03T07:19:00;3.50;99.90
46652;DHT22;32377;52.182;5.398;2023-04-03T07:21:25;3.60;99.90
46652;DHT22;32377;52.182;5.398;2023-04-03T07:23:51;3.60;99.90
46652;DHT22;32377;52.182;5.398;2023-04-03T07:26:17;3.70;99.90
46652;DHT22;32377;52.182;5.398;2023-04-03T07:28:43;3.80;99.90
46652;DHT22;32377;52.182;5.398;2023-04-03T07:31:13;3.90;99.90
46652;DHT22;32377;52.182;5.398;2023-04-03T07:33:39;4.00;99.90
46652;DHT22;32377;52.182;5.398;2023-04-03T07:36:06;4.00;99.90
46652;DHT22;32377;52.182;5.398;2023-04-03T07:38:33;4.00;99.90
46652;DHT22;32377;52.182;5.398;2023-04-03T07:40:59;4.20;99.90
46652;DHT22;32377;52.182;5.398;2023-04-03T07:43:25;4.20;99.90
46652;DHT22;32377;52.182;5.398;2023-04-03T07:45:52;4.30;99.90
46652;DHT22;32377;52.182;5.398;2023-04-03T07:48:20;4.30;99.90
46652;DHT22;32377;52.182;5.398;2023-04-03T07:50:47;4.30;99.90
46652;DHT22;32377;52.182;5.398;2023-04-03T07:53:13;4.40;99.90
46652;DHT22;32377;52.182;5.398;2023-04-03T07:55:39;4.40;99.90
46652;DHT22;32377;52.182;5.398;2023-04-03T07:58:13;4.60;99.90
46652;DHT22;32377;52.182;5.398;2023-04-03T08:00:40;4.60;99.90
46652;DHT22;32377;52.182;5.398;2023-04-03T08:03:06;4.70;99.90
46652;DHT22;32377;52.182;5.398;2023-04-03T08:05:37;4.80;99.90
46652;DHT22;32377;52.182;5.398;2023-04-03T08:08:04;4.90;99.90
46652;DHT22;32377;52.182;5.398;2023-04-03T08:10:33;5.00;99.90
46652;DHT22;32377;52.182;5.398;2023-04-03T08:12:59;5.00;99.90
46652;DHT22;32377;52.182;5.398;2023-04-03T08:15:25;5.00;99.90
46652;DHT22;32377;52.182;5.398;2023-04-03T08:17:51;5.10;99.90
46652;DHT22;32377;52.182;5.398;2023-04-03T08:20:17;5.20;99.90
46652;DHT22;32377;52.182;5.398;2023-04-03T08:22:42;5.30;99.90
46652;DHT22;32377;52.182;5.398;2023-04-03T08:25:09;5.50;99.90
46652;DHT22;32377;52.182;5.398;2023-04-03T08:27:35;5.50;99.90
46652;DHT22;32377;52.182;5.398;2023-04-03T08:30:00;5.60;99.90
46652;DHT22;32377;52.182;5.398;2023-04-03T08:32:26;5.60;99.90
46652;DHT22;32377;52.182;5.398;2023-04-03T08:34:52;5.70;99.90
46652;DHT22;32377;52.182;5.398;2023-04-03T08:37:18;5.80;99.90
46652;DHT22;32377;52.182;5.398;2023-04-03T08:39:44;5.90;99.90
46652;DHT22;32377;52.182;5.398;2023-04-03T08:45:27;6.10;99.90
46652;DHT22;32377;52.182;5.398;2023-04-03T08:48:07;6.10;99.90
46652;DHT22;32377;52.182;5.398;2023-04-03T08:50:43;6.20;99.90
46652;DHT22;32377;52.182;5.398;2023-04-03T08:53:20;6.30;99.90
46652;DHT22;32377;52.182;5.398;2023-04-03T08:55:49;6.30;99.90
46652;DHT22;32377;52.182;5.398;2023-04-03T09:01:17;6.50;99.90
46652;DHT22;32377;52.182;5.398;2023-04-03T09:03:44;6.60;99.90
46652;DHT22;32377;52.182;5.398;2023-04-03T09:06:16;6.50;99.90
46652;DHT22;32377;52.182;5.398;2023-04-03T09:12:27;6.50;99.90
46652;DHT22;32377;52.182;5.398;2023-04-03T09:20:19;6.70;99.10
46652;DHT22;32377;52.182;5.398;2023-04-03T09:22:47;6.80;99.30
46652;DHT22;32377;52.182;5.398;2023-04-03T09:25:15;6.90;99.10
46652;DHT22;32377;52.182;5.398;2023-04-03T09:27:41;7.10;98.90
46652;DHT22;32377;52.182;5.398;2023-04-03T09:30:15;7.10;97.60
46652;DHT22;32377;52.182;5.398;2023-04-03T09:32:44;7.10;96.80
46652;DHT22;32377;52.182;5.398;2023-04-03T09:35:25;7.10;95.70
46652;DHT22;32377;52.182;5.398;2023-04-03T09:37:53;7.10;95.40
46652;DHT22;32377;52.182;5.398;2023-04-03T09:42:52;7.40;95.30
46652;DHT22;32377;52.182;5.398;2023-04-03T09:45:36;7.30;94.90
46652;DHT22;32377;52.182;5.398;2023-04-03T09:53:32;7.50;94.00
46652;DHT22;32377;52.182;5.398;2023-04-03T09:59:15;7.60;94.20
46652;DHT22;32377;52.182;5.398;2023-04-03T10:01:56;7.50;92.80
46652;DHT22;32377;52.182;5.398;2023-04-03T10:04:22;7.50;93.30
46652;DHT22;32377;52.182;5.398;2023-04-03T10:06:51;7.60;94.10
46652;DHT22;32377;52.182;5.398;2023-04-03T10:09:29;7.80;94.30
46652;DHT22;32377;52.182;5.398;2023-04-03T10:12:04;8.00;93.20
46652;DHT22;32377;52.182;5.398;2023-04-03T10:14:35;8.00;93.90
46652;DHT22;32377;52.182;5.398;2023-04-03T10:20:07;8.00;92.10
46652;DHT22;32377;52.182;5.398;2023-04-03T10:25:52;8.20;92.60
46652;DHT22;32377;52.182;5.398;2023-04-03T10:28:35;8.30;93.80
46652;DHT22;32377;52.182;5.398;2023-04-03T10:31:16;8.20;91.10
46652;DHT22;32377;52.182;5.398;2023-04-03T10:33:59;8.20;91.40
46652;DHT22;32377;52.182;5.398;2023-04-03T10:36:43;8.30;91.70
46652;DHT22;32377;52.182;5.398;2023-04-03T10:41:53;8.30;91.50
46652;DHT22;32377;52.182;5.398;2023-04-03T10:47:04;8.30;90.90
46652;DHT22;32377;52.182;5.398;2023-04-03T10:50:02;8.30;90.00
46652;DHT22;32377;52.182;5.398;2023-04-03T10:58:29;8.50;90.70
46652;DHT22;32377;52.182;5.398;2023-04-03T11:01:02;8.60;91.80
46652;DHT22;32377;52.182;5.398;2023-04-03T11:03:34;8.60;92.40
46652;DHT22;32377;52.182;5.398;2023-04-03T11:06:02;8.60;93.00
46652;DHT22;32377;52.182;5.398;2023-04-03T11:11:11;8.70;92.00
46652;DHT22;32377;52.182;5.398;2023-04-03T11:16:26;8.90;92.10
46652;DHT22;32377;52.182;5.398;2023-04-03T11:18:56;9.00;92.50
46652;DHT22;32377;52.182;5.398;2023-04-03T11:21:38;9.00;91.80
46652;DHT22;32377;52.182;5.398;2023-04-03T11:24:22;8.90;91.10
46652;DHT22;32377;52.182;5.398;2023-04-03T11:26:49;8.90;92.20
46652;DHT22;32377;52.182;5.398;2023-04-03T11:29:21;8.70;91.00
46652;DHT22;32377;52.182;5.398;2023-04-03T11:34:34;9.00;92.50
46652;DHT22;32377;52.182;5.398;2023-04-03T11:39:39;9.10;92.70
46652;DHT22;32377;52.182;5.398;2023-04-03T11:42:32;9.10;91.50
46652;DHT22;32377;52.182;5.398;2023-04-03T11:47:58;9.20;91.80
46652;DHT22;32377;52.182;5.398;2023-04-03T11:50:32;9.00;90.80
46652;DHT22;32377;52.182;5.398;2023-04-03T11:53:39;9.10;92.40
46652;DHT22;32377;52.182;5.398;2023-04-03T12:01:47;9.20;92.20
46652;DHT22;32377;52.182;5.398;2023-04-03T12:04:15;9.20;93.50
46652;DHT22;32377;52.182;5.398;2023-04-03T12:06:47;9.30;93.70
46652;DHT22;32377;52.182;5.398;2023-04-03T12:12:30;9.40;91.10
46652;DHT22;32377;52.182;5.398;2023-04-03T12:15:16;9.40;94.20
46652;DHT22;32377;52.182;5.398;2023-04-03T12:17:43;9.40;92.80
46652;DHT22;32377;52.182;5.398;2023-04-03T12:23:27;9.40;93.00
46652;DHT22;32377;52.182;5.398;2023-04-03T12:26:01;9.20;92.20
46652;DHT22;32377;52.182;5.398;2023-04-03T12:28:29;9.20;90.80
46652;DHT22;32377;52.182;5.398;2023-04-03T12:30:55;9.20;92.10
46652;DHT22;32377;52.182;5.398;2023-04-03T12:36:26;9.30;92.40
46652;DHT22;32377;52.182;5.398;2023-04-03T12:44:38;9.60;93.10
46652;DHT22;32377;52.182;5.398;2023-04-03T12:47:27;9.60;92.20
46652;DHT22;32377;52.182;5.398;2023-04-03T12:49:53;9.70;92.60
46652;DHT22;32377;52.182;5.398;2023-04-03T12:52:37;9.70;92.80
46652;DHT22;32377;52.182;5.398;2023-04-03T12:55:14;9.90;92.40
46652;DHT22;32377;52.182;5.398;2023-04-03T12:57:40;9.90;92.70
46652;DHT22;32377;52.182;5.398;2023-04-03T13:00:20;9.80;93.20
46652;DHT22;32377;52.182;5.398;2023-04-03T13:02:46;9.80;93.20
46652;DHT22;32377;52.182;5.398;2023-04-03T13:05:18;9.80;91.20
46652;DHT22;32377;52.182;5.398;2023-04-03T13:07:56;9.70;92.10
46652;DHT22;32377;52.182;5.398;2023-04-03T13:10:23;9.70;92.70
46652;DHT22;32377;52.182;5.398;2023-04-03T13:12:58;9.70;91.00
46652;DHT22;32377;52.182;5.398;2023-04-03T13:15:28;9.70;92.00
46652;DHT22;32377;52.182;5.398;2023-04-03T13:17:55;9.80;92.40
46652;DHT22;32377;52.182;5.398;2023-04-03T13:20:30;9.90;92.70
46652;DHT22;32377;52.182;5.398;2023-04-03T13:23:04;9.80;92.00
46652;DHT22;32377;52.182;5.398;2023-04-03T13:25:34;9.90;92.80
46652;DHT22;32377;52.182;5.398;2023-04-03T13:28:02;10.00;93.30
46652;DHT22;32377;52.182;5.398;2023-04-03T13:30:35;9.90;92.80
46652;DHT22;32377;52.182;5.398;2023-04-03T13:33:04;9.90;91.70
46652;DHT22;32377;52.182;5.398;2023-04-03T13:35:37;9.80;92.90
46652;DHT22;32377;52.182;5.398;2023-04-03T13:40:52;9.80;93.30
46652;DHT22;32377;52.182;5.398;2023-04-03T13:43:37;9.90;92.70
46652;DHT22;32377;52.182;5.398;2023-04-03T13:49:00;9.80;93.40
46652;DHT22;32377;52.182;5.398;2023-04-03T13:51:42;9.90;92.90
46652;DHT22;32377;52.182;5.398;2023-04-03T13:54:19;10.00;91.90
46652;DHT22;32377;52.182;5.398;2023-04-03T13:56:46;10.00;92.30
46652;DHT22;32377;52.182;5.398;2023-04-03T14:01:43;9.90;92.40
46652;DHT22;32377;52.182;5.398;2023-04-03T14:04:18;9.90;94.40
46652;DHT22;32377;52.182;5.398;2023-04-03T14:06:45;9.80;91.90
46652;DHT22;32377;52.182;5.398;2023-04-03T14:09:12;9.80;92.10
46652;DHT22;32377;52.182;5.398;2023-04-03T14:11:38;9.70;92.10
46652;DHT22;32377;52.182;5.398;2023-04-03T14:14:21;9.70;93.00
46652;DHT22;32377;52.182;5.398;2023-04-03T14:16:51;9.70;92.10
46652;DHT22;32377;52.182;5.398;2023-04-03T14:19:29;9.80;92.80
46652;DHT22;32377;52.182;5.398;2023-04-03T14:21:56;9.80;91.50
46652;DHT22;32377;52.182;5.398;2023-04-03T14:24:23;9.70;91.30
46652;DHT22;32377;52.182;5.398;2023-04-03T14:26:50;9.70;92.50
46652;DHT22;32377;52.182;5.398;2023-04-03T14:29:16;9.90;93.20
46652;DHT22;32377;52.182;5.398;2023-04-03T14:31:44;9.80;93.80
46652;DHT22;32377;52.182;5.398;2023-04-03T14:34:14;9.90;93.20
46652;DHT22;32377;52.182;5.398;2023-04-03T14:36:42;9.90;92.30
46652;DHT22;32377;52.182;5.398;2023-04-03T14:39:11;9.90;92.50
46652;DHT22;32377;52.182;5.398;2023-04-03T14:41:42;10.00;93.00
46652;DHT22;32377;52.182;5.398;2023-04-03T14:44:08;9.90;94.20
46652;DHT22;32377;52.182;5.398;2023-04-03T14:46:39;9.90;93.40
46652;DHT22;32377;52.182;5.398;2023-04-03T14:49:18;9.80;94.50
46652;DHT22;32377;52.182;5.398;2023-04-03T14:51:44;9.90;93.50
46652;DHT22;32377;52.182;5.398;2023-04-03T14:54:16;9.90;93.20
46652;DHT22;32377;52.182;5.398;2023-04-03T14:56:42;9.80;93.20
46652;DHT22;32377;52.182;5.398;2023-04-03T14:59:11;9.80;93.40
46652;DHT22;32377;52.182;5.398;2023-04-03T15:01:36;9.80;94.40
46652;DHT22;32377;52.182;5.398;2023-04-03T15:04:12;9.70;92.50
46652;DHT22;32377;52.182;5.398;2023-04-03T15:06:39;9.60;93.50
46652;DHT22;32377;52.182;5.398;2023-04-03T15:09:05;9.60;93.50
46652;DHT22;32377;52.182;5.398;2023-04-03T15:11:31;9.60;94.20
46652;DHT22;32377;52.182;5.398;2023-04-03T15:13:57;9.70;94.40
46652;DHT22;32377;52.182;5.398;2023-04-03T15:16:22;9.70;95.90
46652;DHT22;32377;52.182;5.398;2023-04-03T15:18:49;9.80;94.20
46652;DHT22;32377;52.182;5.398;2023-04-03T15:21:14;9.80;95.80
46652;DHT22;32377;52.182;5.398;2023-04-03T15:23:40;9.70;95.00
46652;DHT22;32377;52.182;5.398;2023-04-03T15:26:07;9.70;94.30
46652;DHT22;32377;52.182;5.398;2023-04-03T15:28:35;9.70;95.20
46652;DHT22;32377;52.182;5.398;2023-04-03T15:31:05;9.60;93.40
46652;DHT22;32377;52.182;5.398;2023-04-03T15:33:32;9.60;93.90
46652;DHT22;32377;52.182;5.398;2023-04-03T15:35:58;9.50;94.10
46652;DHT22;32377;52.182;5.398;2023-04-03T15:38:24;9.50;95.50
46652;DHT22;32377;52.182;5.398;2023-04-03T15:40:50;9.50;94.10
46652;DHT22;32377;52.182;5.398;2023-04-03T15:43:16;9.50;94.80
46652;DHT22;32377;52.182;5.398;2023-04-03T15:45:43;9.40;94.20
46652;DHT22;32377;52.182;5.398;2023-04-03T15:48:10;9.50;94.80
46652;DHT22;32377;52.182;5.398;2023-04-03T15:50:35;9.50;94.40
46652;DHT22;32377;52.182;5.398;2023-04-03T15:53:02;9.50;94.20
46652;DHT22;32377;52.182;5.398;2023-04-03T15:55:31;9.50;94.30
46652;DHT22;32377;52.182;5.398;2023-04-03T15:59:13;9.40;94.90
46652;DHT22;32377;52.182;5.398;2023-04-03T16:01:39;9.50;94.30
46652;DHT22;32377;52.182;5.398;2023-04-03T16:04:07;9.50;94.70
46652;DHT22;32377;52.182;5.398;2023-04-03T16:06:33;9.40;95.70
46652;DHT22;32377;52.182;5.398;2023-04-03T16:08:59;9.30;96.80
46652;DHT22;32377;52.182;5.398;2023-04-03T16:11:26;9.40;95.60
46652;DHT22;32377;52.182;5.398;2023-04-03T16:13:53;9.30;96.50
46652;DHT22;32377;52.182;5.398;2023-04-03T16:16:19;9.30;95.60
46652;DHT22;32377;52.182;5.398;2023-04-03T16:18:45;9.40;96.40
46652;DHT22;32377;52.182;5.398;2023-04-03T16:21:13;9.30;96.00
46652;DHT22;32377;52.182;5.398;2023-04-03T16:23:40;9.20;95.40
46652;DHT22;32377;52.182;5.398;2023-04-03T16:26:05;9.10;94.90
46652;DHT22;32377;52.182;5.398;2023-04-03T16:28:31;9.10;95.20
46652;DHT22;32377;52.182;5.398;2023-04-03T16:30:57;9.10;95.70
46652;DHT22;32377;52.182;5.398;2023-04-03T16:33:23;9.10;95.80
46652;DHT22;32377;52.182;5.398;2023-04-03T16:35:50;9.00;96.10
46652;DHT22;32377;52.182;5.398;2023-04-03T16:38:16;9.00;95.40
46652;DHT22;32377;52.182;5.398;2023-04-03T16:40:44;9.00;95.50
46652;DHT22;32377;52.182;5.398;2023-04-03T16:43:10;8.90;95.60
46652;DHT22;32377;52.182;5.398;2023-04-03T16:45:35;8.90;97.10
46652;DHT22;32377;52.182;5.398;2023-04-03T16:48:01;8.80;96.90
46652;DHT22;32377;52.182;5.398;2023-04-03T16:50:27;8.80;96.30
46652;DHT22;32377;52.182;5.398;2023-04-03T16:52:52;8.70;96.50
46652;DHT22;32377;52.182;5.398;2023-04-03T16:55:18;8.70;96.20
46652;DHT22;32377;52.182;5.398;2023-04-03T16:57:44;8.70;95.80
46652;DHT22;32377;52.182;5.398;2023-04-03T17:00:10;8.60;96.70
46652;DHT22;32377;52.182;5.398;2023-04-03T17:02:35;8.70;95.60
46652;DHT22;32377;52.182;5.398;2023-04-03T17:05:01;8.60;96.70
46652;DHT22;32377;52.182;5.398;2023-04-03T17:07:27;8.50;97.20
46652;DHT22;32377;52.182;5.398;2023-04-03T17:09:52;8.50;97.20
46652;DHT22;32377;52.182;5.398;2023-04-03T17:12:20;8.40;97.40
46652;DHT22;32377;52.182;5.398;2023-04-03T17:14:46;8.40;96.60
46652;DHT22;32377;52.182;5.398;2023-04-03T17:17:15;8.30;97.40
46652;DHT22;32377;52.182;5.398;2023-04-03T17:19:43;8.30;96.90
46652;DHT22;32377;52.182;5.398;2023-04-03T17:22:09;8.30;98.10
46652;DHT22;32377;52.182;5.398;2023-04-03T17:24:35;8.20;98.40
46652;DHT22;32377;52.182;5.398;2023-04-03T17:27:02;8.20;98.60